Time;durP1;ratioP1;P1;durP2;ratioP2;P2;SDS_P1;SDS_P2;PMS_P1;PMS_P2;Temp;Humidity;BMP_temperature;BMP_pressure;BME280_temperature;BME280_humidity;BME280_pressure;Samples;Min_cycle;Max_cycle;Signal;HPM_P1;HPM_P2
2021/01/11 00:02:20;;;;;;;101.68;35.45;;;;;;;-2.25;69.88;95720.97;5028287;28;20091;-70
2021/01/11 00:04:45;;;;;;;84.55;34.17;;;;;;;-2.16;70.13;95711.88;5028371;28;20095;-70
2021/01/11 00:07:11;;;;;;;91.07;34.83;;;;;;;-2.04;69.59;95716.44;5028437;28;20065;-70
2021/01/11 00:09:37;;;;;;;85.28;33.97;;;;;;;-1.85;69.89;95718.09;5027939;28;20110;-70
2021/01/11 00:12:03;;;;;;;86.75;33.53;;;;;;;-1.75;69.24;95718.41;5029152;28;20521;-71
2021/01/11 00:14:29;;;;;;;87.40;34.10;;;;;;;-1.73;68.94;95713.00;5028614;28;20045;-71
2021/01/11 00:16:54;;;;;;;98.43;35.85;;;;;;;-1.73;69.20;95703.38;5028402;28;20037;-71
2021/01/11 00:19:19;;;;;;;86.43;33.88;;;;;;;-1.65;68.99;95723.94;5031259;28;20091;-70
2021/01/11 00:21:48;;;;;;;87.00;32.20;;;;;;;-1.60;67.93;95724.09;5031701;28;20479;-72
2021/01/11 00:24:14;;;;;;;71.90;29.40;;;;;;;-1.59;68.17;95712.69;5034153;28;20072;-73
2021/01/11 00:26:39;;;;;;;80.65;32.13;;;;;;;-1.74;67.22;95712.19;5032197;28;20092;-70
2021/01/11 00:29:04;;;;;;;77.95;31.20;;;;;;;-1.71;67.18;95710.97;5031081;28;20518;-70
2021/01/11 00:31:30;;;;;;;79.22;30.80;;;;;;;-1.71;68.20;95705.75;5031795;28;20117;-70
2021/01/11 00:33:55;;;;;;;87.15;32.28;;;;;;;-1.96;67.78;95669.22;5031958;28;20084;-72
2021/01/11 00:36:21;;;;;;;85.85;32.67;;;;;;;-1.59;67.54;95728.34;5031967;28;20033;-69
2021/01/11 00:38:47;;;;;;;73.60;30.05;;;;;;;-1.58;67.54;95724.72;5033786;28;20033;-72
2021/01/11 00:41:19;;;;;;;71.18;29.83;;;;;;;-1.65;68.01;95720.53;5031603;28;20040;-71
2021/01/11 00:43:44;;;;;;;;;;;;;;;-1.66;67.07;95721.56;5032218;28;20117;-70
2021/01/11 00:46:10;;;;;;;71.35;28.85;;;;;;;-1.69;67.69;95725.41;5031634;28;20566;-71
2021/01/11 00:48:35;;;;;;;71.45;28.73;;;;;;;-1.69;67.36;95727.19;5031478;28;20049;-70
2021/01/11 00:51:00;;;;;;;87.38;33.30;;;;;;;-1.74;67.25;95722.63;5033608;28;20029;-71
2021/01/11 00:53:26;;;;;;;84.47;31.77;;;;;;;-1.86;67.19;95703.44;5031264;28;20033;-70
2021/01/11 00:55:51;;;;;;;84.55;31.10;;;;;;;-1.89;67.21;95702.09;5031305;28;20495;-71
2021/01/11 00:58:17;;;;;;;78.93;32.15;;;;;;;-2.01;67.72;95676.88;5031345;28;20526;-71
2021/01/11 01:00:42;;;;;;;77.45;31.50;;;;;;;-1.85;67.75;95707.66;5030067;28;20183;-72
2021/01/11 01:03:07;;;;;;;77.72;29.83;;;;;;;-1.93;67.27;95708.72;5033379;28;20075;-70
2021/01/11 01:05:33;;;;;;;67.13;27.98;;;;;;;-1.89;67.62;95725.56;5031170;28;20081;-72
2021/01/11 01:07:58;;;;;;;74.97;30.48;;;;;;;-1.94;67.37;95714.16;5031400;28;20128;-71
2021/01/11 01:10:23;;;;;;;76.78;31.58;;;;;;;-1.82;67.25;95730.72;5031303;28;20197;-72
2021/01/11 01:12:48;;;;;;;90.70;33.78;;;;;;;-1.74;67.41;95729.63;5031264;28;20034;-71
2021/01/11 01:15:14;;;;;;;77.32;30.60;;;;;;;-1.75;67.62;95725.44;5032916;28;20124;-70
2021/01/11 01:17:40;;;;;;;78.75;32.10;;;;;;;-1.68;67.48;95732.22;5031651;28;20034;-71
2021/01/11 01:20:08;;;;;;;70.50;29.42;;;;;;;-1.99;67.05;95680.91;5029633;28;20087;-70
2021/01/11 01:22:33;;;;;;;77.93;31.38;;;;;;;-1.77;67.26;95719.66;5029633;28;20033;-71
2021/01/11 01:24:59;;;;;;;69.70;28.63;;;;;;;-1.85;67.37;95725.91;5031219;28;20057;-71
2021/01/11 01:27:24;;;;;;;58.55;25.83;;;;;;;-1.98;67.31;95720.78;5030900;28;20482;-70
2021/01/11 01:29:49;;;;;;;63.83;27.48;;;;;;;-2.19;66.15;95701.09;5031152;28;20037;-70
2021/01/11 01:32:15;;;;;;;67.97;28.80;;;;;;;-2.22;66.58;95722.34;5030815;28;20499;-71
2021/01/11 01:34:40;;;;;;;73.78;29.15;;;;;;;-2.23;67.95;95731.97;5031112;28;20344;-71
2021/01/11 01:37:05;;;;;;;69.20;27.88;;;;;;;-2.27;67.71;95733.38;5030818;28;20076;-71
2021/01/11 01:39:30;;;;;;;73.45;29.80;;;;;;;-2.33;68.33;95720.41;5004332;23;20038;-69
2021/01/11 01:41:56;;;;;;;73.90;29.65;;;;;;;-2.45;67.89;95713.25;4992630;28;20085;-69
2021/01/11 01:44:21;;;;;;;68.55;28.30;;;;;;;-2.28;67.89;95737.00;4970115;28;20050;-70
2021/01/11 01:46:47;;;;;;;75.13;30.38;;;;;;;-2.24;68.51;95716.53;4983513;28;20050;-69
2021/01/11 01:49:12;;;;;;;70.97;29.58;;;;;;;-2.19;68.01;95714.91;4990821;28;20082;-70
2021/01/11 01:51:40;;;;;;;69.72;28.27;;;;;;;-2.02;67.57;95725.63;4990777;28;20038;-69
2021/01/11 01:54:06;;;;;;;73.40;29.50;;;;;;;-1.95;68.06;95723.75;4992748;28;20029;-69
2021/01/11 01:56:32;;;;;;;93.43;34.65;;;;;;;-2.07;67.15;95696.78;4990780;28;20069;-69
2021/01/11 01:58:58;;;;;;;73.57;29.23;;;;;;;-1.95;67.61;95705.50;4990249;28;20481;-70
2021/01/11 02:01:23;;;;;;;70.45;28.23;;;;;;;-1.80;67.07;95717.44;4990523;28;20050;-69
2021/01/11 02:03:49;;;;;;;72.82;28.80;;;;;;;-1.75;66.38;95722.81;4972848;28;20560;-72
2021/01/11 02:06:15;;;;;;;82.60;30.33;;;;;;;-1.86;66.50;95717.28;4992542;28;20031;-69
2021/01/11 02:09:06;;;;;;;66.57;28.17;;;;;;;-1.77;66.53;95720.44;4973342;28;20043;-70
2021/01/11 02:11:45;;;;;;;59.13;25.65;;;;;;;-1.89;66.16;95709.91;4990186;28;20522;-69
2021/01/11 02:14:32;;;;;;;59.40;25.52;;;;;;;-1.82;66.49;95715.06;4990322;28;20133;-70
2021/01/11 02:17:10;;;;;;;63.80;25.60;;;;;;;-1.84;65.77;95715.28;4990285;28;20054;-69
2021/01/11 02:20:12;;;;;;;66.45;26.35;;;;;;;-2.15;64.78;95710.88;4990198;28;20130;-69
2021/01/11 02:23:02;;;;;;;66.75;27.35;;;;;;;-2.08;66.24;95708.22;4990021;28;20039;-70
2021/01/11 02:25:42;;;;;;;66.43;28.17;;;;;;;-2.01;66.78;95703.75;4990079;28;20045;-70
2021/01/11 02:28:50;;;;;;;69.78;28.13;;;;;;;-1.93;66.69;95703.50;4990018;28;20045;-70
2021/01/11 02:31:18;;;;;;;62.58;26.70;;;;;;;-1.92;66.59;95697.28;4989916;28;20093;-70
2021/01/11 02:33:45;;;;;;;66.25;27.73;;;;;;;-1.96;66.06;95684.88;4990164;28;20728;-70
2021/01/11 02:36:11;;;;;;;74.15;28.95;;;;;;;-2.00;66.08;95675.88;4974424;28;20026;-69
2021/01/11 02:38:38;;;;;;;68.50;26.90;;;;;;;-1.91;66.17;95692.84;4989660;28;20034;-70
2021/01/11 02:41:03;;;;;;;68.00;27.85;;;;;;;-1.95;66.03;95689.06;4972093;28;20050;-70
2021/01/11 02:43:29;;;;;;;63.45;25.80;;;;;;;-1.98;66.30;95682.50;4989821;28;20496;-69
2021/01/11 02:45:55;;;;;;;59.40;25.52;;;;;;;-2.08;65.33;95671.72;4989805;28;20496;-70
2021/01/11 02:48:27;;;;;;;66.75;27.67;;;;;;;-1.98;66.01;95685.09;4989485;28;20588;-69
2021/01/11 02:51:05;;;;;;;64.40;26.33;;;;;;;-1.95;65.86;95691.69;4974202;28;20117;-70
2021/01/11 02:53:52;;;;;;;62.65;26.55;;;;;;;-1.83;65.49;95697.81;4989610;28;20042;-69
2021/01/11 02:56:24;;;;;;;65.88;26.60;;;;;;;-1.85;65.56;95698.00;4989672;28;20084;-69
2021/01/11 02:58:58;;;;;;;61.53;25.13;;;;;;;-1.78;65.65;95692.78;4989497;28;20403;-70
2021/01/11 03:01:26;;;;;;;64.13;25.88;;;;;;;-2.11;65.55;95646.09;4989393;28;20141;-69
2021/01/11 03:03:54;;;;;;;61.22;25.88;;;;;;;-1.73;65.64;95692.94;4989578;28;20038;-69
2021/01/11 03:06:20;;;;;;;64.53;26.58;;;;;;;-2.00;65.89;95660.22;4988895;28;20019;-69
2021/01/11 03:08:45;;;;;;;63.33;24.90;;;;;;;-1.85;65.42;95681.56;4990335;28;20030;-69
2021/01/11 03:11:10;;;;;;;61.00;26.08;;;;;;;-1.83;65.64;95676.97;4989885;28;20469;-68
2021/01/11 03:13:35;;;;;;;68.82;27.88;;;;;;;-1.69;65.47;95696.72;4989467;28;20043;-70
2021/01/11 03:16:01;;;;;;;76.28;28.15;;;;;;;-1.67;64.86;95679.03;4989112;28;20046;-70
2021/01/11 03:18:26;;;;;;;61.45;26.63;;;;;;;-1.71;65.26;95670.03;4989207;28;20026;-68
2021/01/11 03:20:51;;;;;;;56.97;24.65;;;;;;;-1.67;65.21;95686.06;4991344;28;20507;-68
2021/01/11 03:23:17;;;;;;;60.63;25.88;;;;;;;-1.75;64.75;95674.06;4971776;28;20034;-68
2021/01/11 03:25:42;;;;;;;62.15;27.00;;;;;;;-1.60;65.18;95695.41;4971686;28;20053;-69
2021/01/11 03:28:07;;;;;;;60.95;25.92;;;;;;;-1.71;65.51;95671.84;4989457;28;20046;-70
2021/01/11 03:30:33;;;;;;;76.68;28.25;;;;;;;-1.70;64.90;95684.66;4989598;28;20038;-69
2021/01/11 03:32:59;;;;;;;76.25;28.80;;;;;;;-1.66;65.04;95701.50;4990985;28;20519;-69
2021/01/11 03:35:25;;;;;;;75.40;29.20;;;;;;;-1.65;65.15;95692.66;4988950;28;20038;-69
2021/01/11 03:37:50;;;;;;;66.53;25.20;;;;;;;-1.65;65.01;95700.47;4989032;28;20035;-70
2021/01/11 03:40:16;;;;;;;67.82;26.15;;;;;;;-1.72;65.03;95685.91;4988936;28;20041;-69
2021/01/11 03:42:41;;;;;;;70.35;27.52;;;;;;;-1.69;65.35;95691.50;4989324;28;20097;-69
2021/01/11 03:45:08;;;;;;;64.72;27.67;;;;;;;-1.71;64.82;95696.13;4990983;28;20508;-69
2021/01/11 03:47:34;;;;;;;70.32;28.92;;;;;;;-1.64;65.23;95693.44;4988920;28;20050;-68
2021/01/11 03:49:59;;;;;;;76.15;30.50;;;;;;;-2.16;65.26;95635.50;4988816;28;20040;-69
2021/01/11 03:52:25;;;;;;;73.65;27.45;;;;;;;-2.55;66.07;95689.44;4990373;28;20183;-69
2021/01/11 03:54:51;;;;;;;74.05;27.88;;;;;;;-2.25;66.36;95694.91;4992917;28;20070;-68
2021/01/11 03:57:16;;;;;;;68.38;26.50;;;;;;;-2.25;67.42;95686.25;4992687;28;20077;-69
2021/01/11 03:59:42;;;;;;;71.93;27.45;;;;;;;-2.25;66.56;95696.69;4994546;28;20022;-66
2021/01/11 04:02:07;;;;;;;65.78;27.65;;;;;;;-2.26;66.57;95672.44;4992379;28;20042;-68
2021/01/11 04:04:33;;;;;;;67.45;26.38;;;;;;;-2.12;67.00;95676.56;4992766;28;20042;-68
2021/01/11 04:06:58;;;;;;;77.32;28.77;;;;;;;-2.11;66.86;95662.50;4992613;28;20085;-69
2021/01/11 04:09:25;;;;;;;62.35;26.48;;;;;;;-2.11;66.08;95662.50;4992495;28;20026;-68
2021/01/11 04:11:50;;;;;;;62.38;26.75;;;;;;;-2.00;66.29;95670.66;4994368;28;20476;-68
2021/01/11 04:14:16;;;;;;;58.22;25.77;;;;;;;-2.22;66.47;95629.31;4975329;28;20034;-68
2021/01/11 04:16:41;;;;;;;60.67;25.15;;;;;;;-1.78;66.47;95677.13;4992429;28;20104;-68
2021/01/11 04:19:07;;;;;;;57.40;25.08;;;;;;;-1.72;65.84;95681.47;4992307;28;20499;-70
2021/01/11 04:21:32;;;;;;;53.97;23.30;;;;;;;-1.63;65.81;95676.81;4974799;28;20049;-69
2021/01/11 04:23:57;;;;;;;56.67;25.15;;;;;;;-1.61;65.67;95670.34;4994570;28;20033;-68
2021/01/11 04:26:23;;;;;;;59.38;25.17;;;;;;;-1.60;65.64;95660.72;4992517;28;20065;-68
2021/01/11 04:28:48;;;;;;;64.13;26.60;;;;;;;-1.65;65.32;95666.56;4992060;28;20061;-69
2021/01/11 04:31:13;;;;;;;69.03;29.08;;;;;;;-1.49;65.69;95672.25;4992092;28;20077;-68
2021/01/11 04:33:39;;;;;;;66.15;27.67;;;;;;;-1.55;65.49;95660.06;4974678;28;20046;-69
2021/01/11 04:36:04;;;;;;;64.15;26.75;;;;;;;-1.51;64.96;95671.69;4994092;28;20070;-69
2021/01/11 04:38:30;;;;;;;65.18;27.30;;;;;;;-1.61;64.76;95665.13;4991930;28;20404;-68
2021/01/11 04:41:03;;;;;;;72.72;28.40;;;;;;;-1.85;65.16;95678.97;4992217;28;20125;-69
2021/01/11 04:43:49;;;;;;;66.13;27.92;;;;;;;-1.87;65.35;95673.19;4991911;28;20176;-69
2021/01/11 04:46:15;;;;;;;71.55;28.10;;;;;;;-1.75;65.68;95684.50;4992119;28;20423;-68
2021/01/11 04:48:41;;;;;;;73.22;28.73;;;;;;;-1.68;66.22;95677.44;4991823;28;20045;-69
2021/01/11 04:51:07;;;;;;;75.28;29.85;;;;;;;-1.64;65.68;95667.34;4993972;28;20176;-69
2021/01/11 04:53:33;;;;;;;67.10;27.73;;;;;;;-1.65;65.61;95661.34;4991767;28;20551;-68
2021/01/11 04:55:59;;;;;;;67.07;27.30;;;;;;;-1.70;65.06;95668.22;4991602;28;20096;-69
2021/01/11 04:58:26;;;;;;;65.63;27.88;;;;;;;-1.57;65.58;95678.56;4974159;28;20046;-68
2021/01/11 05:00:51;;;;;;;63.10;25.73;;;;;;;-1.55;66.27;95665.28;4991950;28;20038;-68
2021/01/11 05:03:22;;;;;;;53.58;24.60;;;;;;;-1.51;65.12;95676.88;4991328;28;20038;-68
2021/01/11 05:05:48;;;;;;;61.50;26.92;;;;;;;-1.73;64.75;95643.38;4993688;28;20031;-68
2021/01/11 05:08:13;;;;;;;71.38;28.60;;;;;;;-1.58;64.80;95656.88;4991808;28;20062;-68
2021/01/11 05:10:40;;;;;;;61.35;26.00;;;;;;;-1.57;64.74;95666.31;4991562;28;20050;-68
2021/01/11 05:13:07;;;;;;;68.25;27.85;;;;;;;-1.49;65.13;95673.03;4991381;28;20054;-70
2021/01/11 05:15:38;;;;;;;68.72;29.20;;;;;;;-1.44;65.25;95675.00;4991279;28;20049;-68
2021/01/11 05:18:16;;;;;;;69.88;28.70;;;;;;;-1.43;64.73;95679.25;4976058;28;20122;-69
2021/01/11 05:20:42;;;;;;;66.90;27.75;;;;;;;-1.52;64.85;95676.09;4991962;28;20042;-68
2021/01/11 05:23:12;;;;;;;60.53;26.00;;;;;;;-1.47;64.34;95688.50;4973742;28;20031;-69
2021/01/11 05:25:40;;;;;;;64.50;27.67;;;;;;;-1.46;65.04;95687.47;4973815;28;20038;-68
2021/01/11 05:28:17;;;;;;;61.35;26.60;;;;;;;-1.43;65.38;95674.03;4991187;28;20038;-69
2021/01/11 05:30:47;;;;;;;62.60;28.33;;;;;;;-1.45;64.79;95673.41;4991223;28;20031;-69
2021/01/11 05:33:20;;;;;;;63.42;27.38;;;;;;;-1.37;64.41;95678.38;4992902;28;20115;-68
2021/01/11 05:35:47;;;;;;;59.92;26.42;;;;;;;-1.44;64.97;95673.19;4991317;28;20133;-68
2021/01/11 05:38:20;;;;;;;64.45;27.05;;;;;;;-1.38;64.29;95676.78;4991035;28;20070;-69
2021/01/11 05:40:47;;;;;;;65.43;26.52;;;;;;;-1.33;64.67;95682.16;4990807;28;20065;-69
2021/01/11 05:43:20;;;;;;;59.03;26.83;;;;;;;-1.33;64.45;95688.16;4990670;28;20045;-69
2021/01/11 05:45:46;;;;;;;62.97;27.38;;;;;;;-1.27;64.09;95707.38;4990747;28;20429;-68
2021/01/11 05:48:13;;;;;;;69.47;29.17;;;;;;;-1.29;64.30;95706.78;4992861;28;20043;-69
2021/01/11 05:50:42;;;;;;;67.53;27.40;;;;;;;-1.39;64.15;95704.66;4991359;28;20050;-68
2021/01/11 05:53:14;;;;;;;72.13;29.00;;;;;;;-1.54;64.20;95708.63;4991069;28;20042;-68
2021/01/11 05:55:39;;;;;;;55.45;21.45;;;;;;;-1.63;64.29;95697.66;4990579;28;20046;-71
2021/01/11 05:58:05;;;;;;;66.20;29.08;;;;;;;-1.45;64.61;95723.78;4984388;28;20046;-69
2021/01/11 06:00:32;;;;;;;77.93;30.25;;;;;;;-1.61;64.54;95708.69;4973920;28;20035;-68
2021/01/11 06:02:59;;;;;;;76.07;30.02;;;;;;;-1.59;64.92;95732.72;4976838;28;20029;-70
2021/01/11 06:05:26;;;;;;;73.35;27.83;;;;;;;-2.88;67.68;95731.22;4991791;28;20522;-67
2021/01/11 06:07:52;;;;;;;82.60;32.38;;;;;;;-2.85;69.25;95732.63;4991283;28;20162;-68
2021/01/11 06:10:19;;;;;;;73.75;30.40;;;;;;;-2.65;68.31;95733.38;4991340;28;20050;-72
2021/01/11 06:12:46;;;;;;;74.90;28.00;;;;;;;-3.65;70.90;95735.34;4991245;28;20038;-72
2021/01/11 06:15:13;;;;;;;78.03;29.50;;;;;;;-3.35;71.00;95742.75;4992713;28;20027;-71
2021/01/11 06:17:41;;;;;;;65.38;27.27;;;;;;;-3.32;70.71;95734.56;4990993;28;20038;-72
2021/01/11 06:20:08;;;;;;;80.30;29.15;;;;;;;-3.01;70.81;95726.09;4991005;28;20034;-71
2021/01/11 06:22:45;;;;;;;68.00;28.15;;;;;;;-2.55;70.11;95730.34;4991273;28;20046;-72
2021/01/11 06:25:22;;;;;;;75.65;29.75;;;;;;;-2.28;69.54;95721.38;4973741;28;20667;-71
2021/01/11 06:28:04;;;;;;;67.28;28.98;;;;;;;-2.09;69.39;95730.09;4984265;28;20054;-71
2021/01/11 06:30:34;;;;;;;71.63;27.83;;;;;;;-2.15;67.35;95721.31;4960561;28;20035;-71
2021/01/11 06:33:25;;;;;;;73.68;28.08;;;;;;;-2.01;66.84;95721.22;4975484;28;20507;-71
2021/01/11 06:35:52;;;;;;;78.32;29.40;;;;;;;-2.06;67.55;95729.66;4971939;28;20115;-72
2021/01/11 06:38:28;;;;;;;68.07;28.38;;;;;;;-1.91;66.93;95724.16;4971232;28;20043;-71
2021/01/11 06:40:53;;;;;;;70.78;28.58;;;;;;;-1.79;67.44;95738.13;4954225;28;20035;-70
2021/01/11 06:43:20;;;;;;;66.30;28.13;;;;;;;-1.81;65.81;95718.47;4971371;28;20039;-71
2021/01/11 06:45:47;;;;;;;68.30;28.63;;;;;;;-1.75;65.31;95733.25;4971391;28;20031;-72
2021/01/11 06:48:15;;;;;;;74.72;28.65;;;;;;;-1.73;65.54;95729.44;4973340;28;20126;-71
2021/01/11 06:50:43;;;;;;;66.75;28.45;;;;;;;-1.85;65.43;95711.06;4971168;28;20034;-71
2021/01/11 06:53:09;;;;;;;73.20;30.20;;;;;;;-1.87;64.28;95714.91;4971033;28;20555;-70
2021/01/11 06:55:34;;;;;;;63.67;27.88;;;;;;;-1.71;64.90;95718.78;4971126;28;20050;-70
2021/01/11 06:58:01;;;;;;;64.15;26.52;;;;;;;-1.66;63.54;95742.44;4953259;28;20059;-72
2021/01/11 07:00:29;;;;;;;55.53;24.80;;;;;;;-1.69;63.54;95748.06;4953742;28;20082;-71
2021/01/11 07:02:54;;;;;;;62.28;25.52;;;;;;;-1.83;62.73;95747.38;4972835;28;20030;-70
2021/01/11 07:05:35;;;;;;;57.35;24.80;;;;;;;-1.84;62.98;95743.97;4953656;28;20058;-72
2021/01/11 07:08:08;;;;;;;61.05;25.80;;;;;;;-1.80;63.17;95752.16;4971087;28;20066;-74
2021/01/11 07:10:38;;;;;;;60.13;26.00;;;;;;;-1.90;63.66;95729.13;4970729;28;20043;-72
2021/01/11 07:13:19;;;;;;;59.03;25.50;;;;;;;-1.69;63.14;95742.84;4970709;28;20138;-73
2021/01/11 07:15:56;;;;;;;58.50;25.27;;;;;;;-1.63;62.54;95749.84;4953571;28;20043;-72
2021/01/11 07:18:36;;;;;;;63.72;25.30;;;;;;;-1.63;62.81;95753.25;4952072;28;20473;-72
2021/01/11 07:21:13;;;;;;;67.03;26.85;;;;;;;-1.75;63.04;95734.06;4973038;28;20019;-71
2021/01/11 07:23:39;;;;;;;55.30;24.77;;;;;;;-1.54;62.93;95766.81;4970627;28;20050;-72
2021/01/11 07:26:14;;;;;;;53.28;24.55;;;;;;;-1.48;62.71;95760.75;4970623;28;20050;-72
2021/01/11 07:28:47;;;;;;;57.28;25.00;;;;;;;-1.50;62.20;95754.13;4969788;28;20505;-73
2021/01/11 07:31:17;;;;;;;62.80;25.23;;;;;;;-1.49;61.60;95750.53;4970789;28;20047;-72
2021/01/11 07:33:42;;;;;;;55.92;23.60;;;;;;;-1.36;61.75;95764.25;4970828;28;20049;-70
2021/01/11 07:36:16;;;;;;;54.80;24.42;;;;;;;-1.42;62.07;95765.13;4972632;28;20038;-72
2021/01/11 07:38:42;;;;;;;58.42;25.50;;;;;;;-1.42;61.12;95759.91;4953531;28;20054;-72
2021/01/11 07:41:07;;;;;;;54.97;25.05;;;;;;;-1.34;61.08;95774.47;4970728;28;20047;-72
2021/01/11 07:43:33;;;;;;;59.80;26.45;;;;;;;-1.28;60.86;95781.44;4970627;28;20054;-73
2021/01/11 07:46:03;;;;;;;56.35;24.25;;;;;;;-1.29;61.41;95776.44;4970938;28;20046;-71
2021/01/11 07:48:28;;;;;;;61.22;26.33;;;;;;;-1.19;60.97;95780.19;4970246;28;20082;-72
2021/01/11 07:51:05;;;;;;;53.47;24.52;;;;;;;-1.19;61.10;95774.16;4972606;28;20035;-73
2021/01/11 07:53:38;;;;;;;53.65;23.70;;;;;;;-1.28;60.59;95750.13;4970711;28;20046;-74
2021/01/11 07:56:10;;;;;;;53.25;24.02;;;;;;;-1.13;60.66;95768.06;4970681;28;20058;-74
2021/01/11 07:58:37;;;;;;;56.10;24.60;;;;;;;-0.96;60.72;95778.78;4970038;28;20050;-72
2021/01/11 08:01:03;;;;;;;55.35;24.58;;;;;;;-1.36;60.15;95716.50;4970517;28;20031;-73
2021/01/11 08:03:29;;;;;;;56.08;25.27;;;;;;;-0.89;60.52;95769.06;4970194;28;20528;-73
2021/01/11 08:06:02;;;;;;;59.97;25.70;;;;;;;-0.82;60.73;95759.34;4972372;28;20019;-70
2021/01/11 08:08:31;;;;;;;58.47;26.83;;;;;;;-0.86;60.48;95756.38;4970375;28;20050;-72
2021/01/11 08:10:58;;;;;;;59.25;25.45;;;;;;;-1.01;60.19;95737.66;4970483;28;20046;-72
2021/01/11 08:13:23;;;;;;;54.67;23.70;;;;;;;-0.87;59.64;95761.78;4970391;28;20045;-71
2021/01/11 08:15:53;;;;;;;53.40;24.27;;;;;;;-0.82;59.56;95759.34;4970562;28;20043;-68
2021/01/11 08:18:19;;;;;;;60.72;25.85;;;;;;;-0.82;59.29;95778.44;4970223;28;20038;-68
2021/01/11 08:20:44;;;;;;;63.30;26.30;;;;;;;-0.73;59.22;95786.78;4972315;28;20031;-69
2021/01/11 08:23:10;;;;;;;58.78;27.35;;;;;;;-0.89;59.89;95756.00;4970049;28;20049;-68
2021/01/11 08:25:37;;;;;;;62.60;26.75;;;;;;;-0.46;59.51;95791.72;4970398;28;20039;-68
2021/01/11 08:28:03;;;;;;;56.45;25.45;;;;;;;-0.39;58.90;95789.84;4969965;28;20571;-68
2021/01/11 08:30:30;;;;;;;57.72;25.38;;;;;;;-0.59;58.60;95758.69;4970083;28;20061;-68
2021/01/11 08:32:58;;;;;;;57.55;24.42;;;;;;;-0.55;57.40;95780.78;4954626;28;20027;-69
2021/01/11 08:35:24;;;;;;;58.97;25.90;;;;;;;-0.44;58.19;95792.31;4952879;28;20097;-68
2021/01/11 08:37:57;;;;;;;50.60;23.75;;;;;;;-1.36;59.18;95786.97;4970458;28;20043;-70
2021/01/11 08:40:28;;;;;;;54.35;24.60;;;;;;;-1.74;61.66;95782.63;4972840;28;20046;-69
2021/01/11 08:42:53;;;;;;;59.42;25.45;;;;;;;-1.94;61.88;95774.91;4973499;28;20077;-69
2021/01/11 08:45:34;;;;;;;56.30;25.08;;;;;;;-1.71;61.95;95792.63;4973656;28;20620;-78
2021/01/11 08:48:06;;;;;;;52.00;22.73;;;;;;;-1.80;62.27;95799.09;4958122;28;20037;-73
2021/01/11 08:50:42;;;;;;;43.85;19.63;;;;;;;-1.75;61.98;95801.88;4973792;28;20030;-77
2021/01/11 08:53:43;;;;;;;52.60;24.83;;;;;;;-1.59;61.20;95800.56;4973702;28;20039;-77
2021/01/11 08:56:11;;;;;;;50.97;22.27;;;;;;;-1.53;60.32;95809.38;4969599;28;20105;-74
2021/01/11 08:58:38;;;;;;;52.80;23.33;;;;;;;-1.28;60.34;95817.19;4955626;28;20081;-77
2021/01/11 09:01:11;;;;;;;57.13;24.25;;;;;;;-1.08;59.56;95795.13;4967772;28;20077;-75
2021/01/11 09:03:49;;;;;;;53.90;23.27;;;;;;;-0.73;58.90;95815.50;4956404;28;20117;-69
2021/01/11 09:06:36;;;;;;;46.47;20.70;;;;;;;-0.50;59.17;95817.50;4975176;28;20062;-72
2021/01/11 09:09:13;;;;;;;48.47;21.60;;;;;;;-0.30;57.77;95822.50;4973405;28;20043;-71
2021/01/11 09:11:40;;;;;;;46.20;20.88;;;;;;;-0.21;56.92;95813.34;4955597;28;20130;-73
2021/01/11 09:14:10;;;;;;;40.80;21.40;;;;;;;-0.28;56.36;95820.47;4973386;28;20471;-66
2021/01/11 09:16:37;;;;;;;48.25;22.73;;;;;;;-0.08;56.55;95818.41;4972877;28;20059;-74
2021/01/11 09:19:10;;;;;;;46.70;22.00;;;;;;;-0.89;55.27;95826.50;4972921;28;20039;-75
2021/01/11 09:21:36;;;;;;;42.55;20.85;;;;;;;-0.64;57.03;95805.59;4955533;28;20041;-74
2021/01/11 09:24:01;;;;;;;38.67;19.73;;;;;;;-0.26;56.26;95818.41;4957361;28;20031;-71
2021/01/11 09:26:32;;;;;;;39.38;19.67;;;;;;;0.02;55.58;95824.94;4972951;28;20061;-75
2021/01/11 09:28:57;;;;;;;44.25;20.58;;;;;;;0.26;55.24;95826.66;4972002;28;20154;-73
2021/01/11 09:31:22;;;;;;;42.75;21.42;;;;;;;0.23;54.42;95829.69;4972784;28;20060;-75
2021/01/11 09:33:48;;;;;;;46.88;21.75;;;;;;;0.40;54.20;95833.28;4972829;28;20456;-74
2021/01/11 09:36:13;;;;;;;40.70;21.35;;;;;;;0.32;53.44;95783.09;4975068;28;20037;-79
2021/01/11 09:38:38;;;;;;;41.38;21.08;;;;;;;0.76;52.44;95834.97;4956232;28;20126;-80
2021/01/11 09:41:03;;;;;;;37.10;19.85;;;;;;;0.72;53.03;95839.06;4973439;28;20485;-76
2021/01/11 09:43:29;;;;;;;37.60;19.92;;;;;;;0.61;51.41;95821.50;4972303;28;20039;-71
2021/01/11 09:45:54;;;;;;;38.30;20.58;;;;;;;0.52;52.10;95836.75;4972509;28;20066;-77
2021/01/11 09:48:19;;;;;;;37.42;19.50;;;;;;;0.04;51.76;95834.16;4955129;28;20254;-77
2021/01/11 09:50:45;;;;;;;37.55;19.75;;;;;;;-1.06;55.72;95842.72;4974506;28;20023;-77
2021/01/11 09:53:11;;;;;;;39.78;21.27;;;;;;;-2.25;58.39;95827.81;4972440;28;20055;-75
2021/01/11 09:56:10;;;;;;;44.70;20.38;;;;;;;-1.02;56.70;95847.50;4956041;28;20042;-80
2021/01/11 09:58:35;;;;;;;36.63;19.45;;;;;;;-0.40;55.83;95843.13;4955834;28;20038;-80
2021/01/11 10:01:00;;;;;;;40.55;19.83;;;;;;;-0.33;55.78;95828.97;4973446;28;20481;-80
2021/01/11 10:03:26;;;;;;;35.75;20.20;;;;;;;-0.61;54.40;95831.28;4972834;28;20069;-80
2021/01/11 10:05:58;;;;;;;39.83;19.92;;;;;;;-0.34;54.41;95832.59;4957777;28;20027;-79
2021/01/11 10:08:23;;;;;;;32.05;18.30;;;;;;;-0.18;53.66;95818.13;4973667;28;20042;-79
2021/01/11 10:10:52;;;;;;;38.30;19.08;;;;;;;0.10;52.30;95809.72;4960578;28;20582;-80
2021/01/11 10:13:18;;;;;;;32.50;18.88;;;;;;;0.14;52.06;95810.88;4961963;28;20031;-76
2021/01/11 10:15:43;;;;;;;36.28;18.95;;;;;;;0.25;52.13;95823.22;4972386;28;20041;-78
2021/01/11 10:18:08;;;;;;;39.40;20.80;;;;;;;-2.86;60.28;95832.56;4974733;28;20059;-79
2021/01/11 10:20:34;;;;;;;40.53;20.65;;;;;;;-2.28;59.30;95824.81;4955865;28;20070;-79
2021/01/11 10:22:59;;;;;;;40.13;19.90;;;;;;;-1.75;59.38;95814.91;4959251;28;20032;-82
2021/01/11 10:25:24;;;;;;;36.22;17.85;;;;;;;-4.09;65.29;95819.88;4962742;28;20066;-81
2021/01/11 10:27:52;;;;;;;47.05;22.13;;;;;;;-3.13;63.51;95809.94;4955790;28;20031;-80
2021/01/11 10:30:18;;;;;;;39.85;19.88;;;;;;;-3.24;64.12;95826.19;4973221;28;20019;-78
2021/01/11 10:32:43;;;;;;;41.42;20.05;;;;;;;-3.47;63.50;95810.97;4980820;28;20380;-78
2021/01/11 10:35:09;;;;;;;47.22;20.90;;;;;;;-4.32;66.22;95820.19;4957698;28;20038;-81
2021/01/11 10:37:35;;;;;;;47.72;22.92;;;;;;;-3.34;65.03;95804.97;4954737;28;20145;-74
2021/01/11 10:40:00;;;;;;;44.33;21.13;;;;;;;-3.37;63.60;95740.34;4971331;28;20565;-77
2021/01/11 10:42:26;;;;;;;40.17;21.15;;;;;;;-2.93;62.46;95790.91;4971494;28;20019;-68
2021/01/11 10:44:52;;;;;;;38.85;19.77;;;;;;;-2.56;61.14;95779.00;4973358;28;20026;-66
2021/01/11 10:47:17;;;;;;;41.38;19.75;;;;;;;-2.12;60.90;95801.66;4954201;28;20448;-68
2021/01/11 10:49:44;;;;;;;41.22;19.38;;;;;;;-2.36;59.85;95794.56;4971390;28;20035;-73
2021/01/11 10:52:09;;;;;;;37.03;18.42;;;;;;;-3.03;61.44;95808.75;4971544;28;20058;-77
2021/01/11 10:54:34;;;;;;;38.20;18.67;;;;;;;-3.49;63.95;95791.34;4971854;28;23663;-75
2021/01/11 10:57:00;;;;;;;42.55;19.45;;;;;;;-2.51;61.89;95768.75;4955999;28;20027;-73
2021/01/11 10:59:25;;;;;;;36.53;19.10;;;;;;;-2.73;61.88;95778.66;4970872;28;20043;-72
2021/01/11 11:01:51;;;;;;;32.17;17.73;;;;;;;-2.06;60.43;95781.00;4953945;28;20512;-83
2021/01/11 11:04:16;;;;;;;32.15;18.13;;;;;;;-1.18;60.14;95780.97;4971501;28;20038;-69
2021/01/11 11:06:42;;;;;;;33.28;18.35;;;;;;;-0.62;57.73;95769.56;4971478;28;20460;-80
2021/01/11 11:09:07;;;;;;;39.42;18.42;;;;;;;-2.45;58.59;95774.97;4973672;28;20031;-75
2021/01/11 11:11:32;;;;;;;34.90;17.85;;;;;;;-2.25;60.01;95748.81;4970875;28;20199;-69
2021/01/11 11:13:58;;;;;;;37.28;19.80;;;;;;;-1.39;58.58;95741.19;4971234;28;20043;-81
2021/01/11 11:16:23;;;;;;;35.30;19.13;;;;;;;-0.59;56.80;95758.69;4970999;28;20042;-68
2021/01/11 11:18:48;;;;;;;36.22;19.67;;;;;;;-0.34;55.72;95753.38;4970777;28;20096;-73
2021/01/11 11:21:14;;;;;;;33.83;19.15;;;;;;;-0.05;54.89;95743.97;4972574;28;20102;-71
2021/01/11 11:23:40;;;;;;;34.28;18.65;;;;;;;-1.23;54.81;95734.63;4970618;28;20043;-69